createdAt,value
2023-05-10T00:01:29.081Z,13.50
2023-05-10T00:03:56.035Z,13.50
2023-05-10T00:06:23.031Z,13.50
2023-05-10T00:08:49.798Z,13.50
2023-05-10T00:11:16.524Z,13.50
2023-05-10T00:13:43.303Z,13.50
2023-05-10T00:16:10.419Z,13.50
2023-05-10T00:18:37.167Z,13.50
2023-05-10T00:21:04.127Z,13.40
2023-05-10T00:23:30.846Z,13.40
2023-05-10T00:25:57.621Z,13.40
2023-05-10T00:28:24.619Z,13.40
2023-05-10T00:30:51.335Z,13.40
2023-05-10T00:33:19.255Z,13.40
2023-05-10T00:35:46.020Z,13.40
2023-05-10T00:38:12.774Z,13.40
2023-05-10T00:40:39.578Z,13.40
2023-05-10T00:43:06.709Z,13.40
2023-05-10T00:45:34.148Z,13.30
2023-05-10T00:48:04.765Z,13.40
2023-05-10T00:50:33.614Z,13.30
2023-05-10T00:53:01.516Z,13.30
2023-05-10T00:55:28.515Z,13.30
2023-05-10T00:57:55.616Z,13.30
2023-05-10T01:00:22.610Z,13.30
2023-05-10T01:02:50.634Z,13.30
2023-05-10T01:05:17.704Z,13.30
2023-05-10T01:07:44.602Z,13.30
2023-05-10T01:10:11.903Z,13.30
2023-05-10T01:12:41.654Z,13.30
2023-05-10T01:15:09.937Z,13.30
2023-05-10T01:17:39.864Z,13.30
2023-05-10T01:20:09.168Z,13.20
2023-05-10T01:22:53.773Z,13.20
2023-05-10T01:25:42.749Z,13.20
2023-05-10T01:28:27.501Z,13.20
2023-05-10T01:31:12.795Z,13.20
2023-05-10T01:33:42.673Z,13.20
2023-05-10T01:36:35.718Z,13.20
2023-05-10T01:39:04.542Z,13.20
2023-05-10T01:41:33.963Z,13.20
2023-05-10T01:44:48.534Z,13.20
2023-05-10T01:47:26.045Z,13.20
2023-05-10T01:49:56.307Z,13.20
2023-05-10T01:52:34.901Z,13.20
2023-05-10T01:55:05.889Z,13.10
2023-05-10T01:57:38.465Z,13.10
2023-05-10T02:00:07.410Z,13.10
2023-05-10T02:02:39.911Z,13.10
2023-05-10T02:05:08.327Z,13.10
2023-05-10T02:07:38.698Z,13.10
2023-05-10T02:10:05.835Z,13.10
2023-05-10T02:12:35.912Z,13.10
2023-05-10T02:15:05.534Z,13.10
2023-05-10T02:17:33.877Z,13.10
2023-05-10T02:20:02.117Z,13.10
2023-05-10T02:22:30.037Z,13.10
2023-05-10T02:24:59.446Z,13.10
2023-05-10T02:27:28.262Z,13.10
2023-05-10T02:29:56.082Z,13.10
2023-05-10T02:32:25.328Z,13.00
2023-05-10T02:34:53.561Z,13.00
2023-05-10T02:37:22.184Z,13.00
2023-05-10T02:39:51.773Z,13.00
2023-05-10T02:42:20.930Z,13.00
2023-05-10T02:44:50.436Z,13.00
2023-05-10T02:47:17.791Z,13.00
2023-05-10T02:49:44.617Z,13.00
2023-05-10T02:52:12.105Z,13.00
2023-05-10T02:54:48.113Z,13.00
2023-05-10T02:57:19.421Z,13.00
2023-05-10T02:59:47.081Z,13.00
2023-05-10T03:02:14.322Z,13.00
2023-05-10T03:04:41.124Z,13.00
2023-05-10T03:07:08.806Z,13.00
2023-05-10T03:09:36.005Z,13.00
2023-05-10T03:12:16.517Z,13.00
2023-05-10T03:15:31.653Z,13.00
2023-05-10T03:18:10.473Z,13.00
2023-05-10T03:20:43.230Z,13.00
2023-05-10T03:23:19.105Z,13.00
2023-05-10T03:25:48.902Z,12.90
2023-05-10T03:28:17.144Z,13.00
2023-05-10T03:30:45.923Z,12.90
2023-05-10T03:33:14.136Z,13.00
2023-05-10T03:35:40.897Z,13.00
2023-05-10T03:38:07.635Z,13.00
2023-05-10T03:40:34.433Z,13.00
2023-05-10T03:43:01.238Z,13.00
2023-05-10T03:45:28.221Z,13.00
2023-05-10T03:47:55.039Z,13.00
2023-05-10T03:50:22.125Z,13.00
2023-05-10T03:52:49.014Z,12.90
2023-05-10T03:55:15.973Z,12.90
2023-05-10T03:57:42.957Z,12.90
2023-05-10T04:00:10.634Z,12.90
2023-05-10T04:02:38.413Z,12.90
2023-05-10T04:05:05.673Z,13.00
2023-05-10T04:07:32.409Z,13.00
2023-05-10T04:09:59.177Z,13.00
2023-05-10T04:12:25.992Z,13.00
2023-05-10T04:14:52.797Z,13.10
2023-05-10T04:17:19.599Z,13.10
2023-05-10T04:19:46.365Z,13.10
2023-05-10T04:22:13.064Z,13.10
2023-05-10T04:24:39.751Z,13.20
2023-05-10T04:27:06.464Z,13.20
2023-05-10T04:29:33.152Z,13.20
2023-05-10T04:31:59.979Z,13.20
2023-05-10T04:34:26.726Z,13.20
2023-05-10T04:36:53.418Z,13.20
2023-05-10T04:39:20.164Z,13.30
2023-05-10T04:41:46.874Z,13.30
2023-05-10T04:44:13.610Z,13.30
2023-05-10T04:46:40.479Z,13.30
2023-05-10T04:49:07.338Z,13.30
2023-05-10T04:51:34.178Z,13.30
2023-05-10T04:54:05.955Z,13.30
2023-05-10T04:56:33.874Z,13.30
2023-05-10T04:59:00.650Z,13.30
2023-05-10T05:01:27.411Z,13.30
2023-05-10T05:03:54.399Z,13.20
2023-05-10T05:06:22.202Z,13.30
2023-05-10T05:08:50.438Z,13.30
2023-05-10T05:11:18.189Z,13.20
2023-05-10T05:13:45.003Z,13.20
2023-05-10T05:16:12.627Z,13.20
2023-05-10T05:18:39.755Z,13.10
2023-05-10T05:21:20.036Z,13.10
2023-05-10T05:23:47.244Z,13.00
2023-05-10T05:26:14.011Z,13.00
2023-05-10T05:28:40.810Z,13.00
2023-05-10T05:31:11.263Z,13.00
2023-05-10T05:33:38.318Z,13.00
2023-05-10T05:36:06.416Z,12.90
2023-05-10T05:38:33.309Z,12.90
2023-05-10T05:41:00.146Z,12.90
2023-05-10T05:43:27.046Z,12.80
2023-05-10T05:45:58.945Z,12.80
2023-05-10T05:48:25.942Z,12.70
2023-05-10T05:50:57.158Z,12.70
2023-05-10T05:53:24.399Z,12.60
2023-05-10T05:55:58.884Z,12.60
2023-05-10T05:58:26.330Z,12.50
2023-05-10T06:00:53.636Z,12.50
2023-05-10T06:03:21.049Z,12.50
2023-05-10T06:05:47.925Z,12.60
2023-05-10T06:08:14.636Z,12.60
2023-05-10T06:10:41.328Z,12.60
2023-05-10T06:13:08.111Z,12.70
2023-05-10T06:15:35.505Z,12.70
2023-05-10T06:18:02.485Z,12.80
2023-05-10T06:20:29.313Z,12.80
2023-05-10T06:22:56.039Z,12.80
2023-05-10T06:25:22.771Z,12.90
2023-05-10T06:27:53.472Z,13.00
2023-05-10T06:30:21.264Z,13.00
2023-05-10T06:32:48.181Z,13.10
2023-05-10T06:35:15.039Z,13.20
2023-05-10T06:37:41.987Z,13.30
2023-05-10T06:40:09.182Z,13.50
2023-05-10T06:42:35.952Z,13.70
2023-05-10T06:45:03.229Z,13.80
2023-05-10T06:47:29.965Z,14.00
2023-05-10T06:49:56.868Z,14.30
2023-05-10T06:52:24.335Z,14.50
2023-05-10T06:54:51.335Z,14.80
2023-05-10T06:57:30.437Z,15.00
2023-05-10T06:59:58.992Z,15.30
2023-05-10T07:02:25.819Z,15.60
2023-05-10T07:04:53.185Z,15.90
2023-05-10T07:07:20.262Z,16.10
2023-05-10T07:09:47.059Z,16.20
2023-05-10T07:12:15.316Z,16.30
2023-05-10T07:14:42.807Z,16.40
2023-05-10T07:17:09.901Z,16.50
2023-05-10T07:19:36.967Z,16.50
2023-05-10T07:22:03.892Z,16.50
2023-05-10T07:24:32.138Z,16.70
2023-05-10T07:26:58.899Z,17.00
2023-05-10T07:29:25.731Z,17.20
2023-05-10T07:31:52.661Z,17.40
2023-05-10T07:34:19.501Z,17.60
2023-05-10T07:36:46.284Z,17.60
2023-05-10T07:39:16.425Z,17.70
2023-05-10T07:41:51.450Z,17.90
2023-05-10T07:44:20.123Z,18.50
2023-05-10T07:46:48.078Z,19.20
2023-05-10T07:49:14.924Z,20.00
2023-05-10T07:51:41.959Z,20.50
2023-05-10T07:54:08.714Z,20.90
2023-05-10T07:56:35.937Z,21.40
2023-05-10T07:59:08.782Z,21.60
2023-05-10T08:01:36.724Z,21.60
2023-05-10T08:04:03.742Z,21.80
2023-05-10T08:06:31.042Z,22.00
2023-05-10T08:08:58.279Z,22.20
2023-05-10T08:11:25.116Z,22.20
2023-05-10T08:13:52.691Z,22.00
2023-05-10T08:16:19.706Z,21.90
2023-05-10T08:18:47.898Z,21.70
2023-05-10T08:21:15.488Z,21.40
2023-05-10T08:23:42.359Z,21.00
2023-05-10T08:26:09.108Z,20.60
2023-05-10T08:28:36.009Z,20.20
2023-05-10T08:31:02.897Z,19.80
2023-05-10T08:33:29.682Z,19.50
2023-05-10T08:35:56.389Z,19.00
2023-05-10T08:38:23.146Z,18.40
2023-05-10T08:40:56.281Z,18.00
2023-05-10T08:43:24.349Z,17.60
2023-05-10T08:45:52.808Z,17.30
2023-05-10T08:48:20.001Z,17.10
2023-05-10T08:50:48.560Z,17.00
2023-05-10T08:53:17.268Z,16.90
2023-05-10T08:55:44.196Z,16.90
2023-05-10T08:58:11.349Z,16.80
2023-05-10T09:00:38.774Z,16.70
2023-05-10T09:03:07.135Z,16.50
2023-05-10T09:05:34.233Z,16.40
2023-05-10T09:08:03.703Z,16.30
2023-05-10T09:10:31.851Z,16.30
2023-05-10T09:12:59.703Z,16.50
2023-05-10T09:15:26.766Z,16.70
2023-05-10T09:17:53.849Z,16.90
2023-05-10T09:20:21.386Z,17.10
2023-05-10T09:22:48.335Z,17.10
2023-05-10T09:25:17.091Z,17.00
2023-05-10T09:27:48.987Z,16.90
2023-05-10T09:30:28.624Z,16.80
2023-05-10T09:32:56.381Z,16.60
2023-05-10T09:35:27.871Z,16.50
2023-05-10T09:37:59.144Z,16.40
2023-05-10T09:40:27.606Z,16.60
2023-05-10T09:42:59.674Z,17.00
2023-05-10T09:45:29.303Z,17.40
2023-05-10T09:47:56.584Z,17.80
2023-05-10T09:50:24.254Z,18.10
2023-05-10T09:53:01.151Z,18.10
2023-05-10T09:55:41.319Z,18.20
2023-05-10T09:58:11.616Z,18.40
2023-05-10T10:00:41.004Z,18.50
2023-05-10T10:03:13.326Z,18.70
2023-05-10T10:05:42.716Z,19.00
2023-05-10T10:08:09.511Z,19.60
2023-05-10T10:10:36.350Z,20.30
2023-05-10T10:13:03.601Z,21.10
2023-05-10T10:15:30.530Z,21.50
2023-05-10T10:17:57.282Z,21.60
2023-05-10T10:20:25.022Z,21.50
2023-05-10T10:22:52.409Z,21.30
2023-05-10T10:25:21.080Z,21.00
2023-05-10T10:28:02.729Z,20.80
2023-05-10T10:30:46.974Z,20.70
2023-05-10T10:33:28.792Z,20.70
2023-05-10T10:35:58.866Z,21.00
2023-05-10T10:38:25.709Z,21.30
2023-05-10T10:41:11.108Z,21.70
2023-05-10T10:43:37.824Z,22.00
2023-05-10T10:46:18.578Z,22.40
2023-05-10T10:49:08.888Z,22.70
2023-05-10T10:51:39.630Z,22.90
2023-05-10T10:54:13.148Z,22.70
2023-05-10T10:56:40.008Z,22.40
2023-05-10T10:59:06.735Z,21.90
2023-05-10T11:01:36.793Z,21.50
2023-05-10T11:04:06.736Z,20.90
2023-05-10T11:06:37.370Z,20.10
2023-05-10T11:09:12.450Z,19.30
2023-05-10T11:12:01.236Z,18.70
2023-05-10T11:14:27.972Z,18.00
2023-05-10T11:16:54.737Z,17.50
2023-05-10T11:19:21.517Z,17.20
2023-05-10T11:21:54.711Z,16.90
2023-05-10T11:24:23.927Z,16.70
2023-05-10T11:26:52.584Z,16.50
2023-05-10T11:29:19.410Z,16.30
2023-05-10T11:31:47.884Z,16.20
2023-05-10T11:34:31.344Z,16.10
2023-05-10T11:36:59.227Z,15.90
2023-05-10T11:39:30.886Z,15.60
2023-05-10T11:41:58.535Z,15.40
2023-05-10T11:44:31.345Z,15.10
2023-05-10T11:47:01.076Z,14.90
2023-05-10T11:49:28.044Z,14.70
2023-05-10T11:52:04.293Z,14.50
2023-05-10T11:54:32.015Z,14.30
2023-05-10T11:56:58.752Z,14.10
2023-05-10T11:59:26.507Z,14.00
2023-05-10T12:01:53.438Z,13.90
2023-05-10T12:04:20.932Z,13.80
2023-05-10T12:06:48.042Z,13.70
2023-05-10T12:09:15.738Z,13.60
2023-05-10T12:11:44.268Z,13.60
2023-05-10T12:14:12.243Z,13.60
2023-05-10T12:16:39.072Z,13.60
2023-05-10T12:19:06.585Z,13.70
2023-05-10T12:21:34.300Z,13.80
2023-05-10T12:24:04.026Z,13.80
2023-05-10T12:26:31.020Z,13.90
2023-05-10T12:29:17.013Z,14.00
2023-05-10T12:31:51.064Z,14.00
2023-05-10T12:34:25.511Z,14.00
2023-05-10T12:36:54.471Z,14.00
2023-05-10T12:39:21.268Z,14.10
2023-05-10T12:41:47.965Z,14.10
2023-05-10T12:44:14.708Z,14.20
2023-05-10T12:46:41.381Z,14.30
2023-05-10T12:49:09.705Z,14.40
2023-05-10T12:51:36.776Z,14.50
2023-05-10T12:54:04.424Z,14.50
2023-05-10T12:56:31.322Z,14.50
2023-05-10T12:58:57.992Z,14.50
2023-05-10T13:01:24.756Z,14.50
2023-05-10T13:03:51.536Z,14.60
2023-05-10T13:06:18.289Z,14.60
2023-05-10T13:08:45.011Z,14.60
2023-05-10T13:11:11.783Z,14.60
2023-05-10T13:13:38.477Z,14.60
2023-05-10T13:16:05.669Z,14.60
2023-05-10T13:18:32.762Z,14.60
2023-05-10T13:20:59.559Z,14.60
2023-05-10T13:23:26.252Z,14.70
2023-05-10T13:25:53.073Z,14.60
2023-05-10T13:28:19.778Z,14.60
2023-05-10T13:30:46.525Z,14.60
2023-05-10T13:33:13.230Z,14.60
2023-05-10T13:35:39.981Z,14.60
2023-05-10T13:38:08.820Z,14.60
2023-05-10T13:40:36.876Z,14.50
2023-05-10T13:43:03.700Z,14.40
2023-05-10T13:45:30.425Z,14.40
2023-05-10T13:47:57.153Z,14.30
2023-05-10T13:50:24.161Z,14.20
2023-05-10T13:52:50.904Z,14.10
2023-05-10T13:55:17.859Z,14.10
2023-05-10T13:57:44.916Z,14.10
2023-05-10T14:00:12.169Z,14.10
2023-05-10T14:02:38.985Z,14.00
2023-05-10T14:05:06.220Z,14.00
2023-05-10T14:07:33.144Z,14.00
2023-05-10T14:09:59.866Z,14.10
2023-05-10T14:12:26.753Z,14.20
2023-05-10T14:14:53.457Z,14.20
2023-05-10T14:17:20.375Z,14.20
2023-05-10T14:19:47.078Z,14.20
2023-05-10T14:22:13.795Z,14.30
2023-05-10T14:24:40.458Z,14.30
2023-05-10T14:27:07.199Z,14.40
2023-05-10T14:29:33.963Z,14.40
2023-05-10T14:32:00.817Z,14.40
2023-05-10T14:34:27.557Z,14.40
2023-05-10T14:36:54.230Z,14.40
2023-05-10T14:39:20.926Z,14.50
2023-05-10T14:41:48.213Z,14.50
2023-05-10T14:44:16.363Z,14.50
2023-05-10T14:46:43.070Z,14.50
2023-05-10T14:49:09.821Z,14.50
2023-05-10T14:51:37.837Z,14.60
2023-05-10T14:54:04.627Z,14.60
2023-05-10T14:56:31.399Z,14.50
2023-05-10T14:58:58.294Z,14.40
2023-05-10T15:01:25.699Z,14.30
2023-05-10T15:03:52.915Z,14.20
2023-05-10T15:06:25.825Z,14.20
2023-05-10T15:08:52.655Z,14.10
2023-05-10T15:11:19.624Z,14.00
2023-05-10T15:13:46.346Z,14.00
2023-05-10T15:16:13.114Z,13.90
2023-05-10T15:18:39.841Z,13.90
2023-05-10T15:21:06.620Z,13.80
2023-05-10T15:23:33.387Z,13.80
2023-05-10T15:26:00.905Z,13.80
2023-05-10T15:28:27.617Z,13.80
2023-05-10T15:30:54.377Z,13.80
2023-05-10T15:33:21.180Z,13.70
2023-05-10T15:35:47.982Z,13.70
2023-05-10T15:38:14.904Z,13.60
2023-05-10T15:40:41.833Z,13.60
2023-05-10T15:43:08.528Z,13.50
2023-05-10T15:45:37.581Z,13.50
2023-05-10T15:48:04.860Z,13.40
2023-05-10T15:50:31.676Z,13.30
2023-05-10T15:52:58.407Z,13.30
2023-05-10T15:55:25.163Z,13.20
2023-05-10T15:57:51.911Z,13.20
2023-05-10T16:00:18.970Z,13.20
2023-05-10T16:02:46.032Z,13.10
2023-05-10T16:05:13.943Z,13.00
2023-05-10T16:07:42.005Z,12.90
2023-05-10T16:10:10.850Z,12.90
2023-05-10T16:12:38.008Z,12.90
2023-05-10T16:15:05.358Z,12.90
2023-05-10T16:17:32.289Z,12.90
2023-05-10T16:19:59.103Z,12.90
2023-05-10T16:22:29.608Z,12.80
2023-05-10T16:24:57.570Z,12.80
2023-05-10T16:27:24.487Z,12.80
2023-05-10T16:29:51.181Z,12.80
2023-05-10T16:32:17.905Z,12.80
2023-05-10T16:34:44.657Z,12.80
2023-05-10T16:37:11.423Z,12.70
2023-05-10T16:39:38.452Z,12.80
2023-05-10T16:42:05.616Z,12.70
2023-05-10T16:44:32.627Z,12.70
2023-05-10T16:46:59.388Z,12.80
2023-05-10T16:49:26.617Z,12.70
2023-05-10T16:51:53.369Z,12.70
2023-05-10T16:54:21.624Z,12.60
2023-05-10T16:56:48.421Z,12.60
2023-05-10T16:59:15.140Z,12.60
2023-05-10T17:01:41.942Z,12.50
2023-05-10T17:04:08.991Z,12.40
2023-05-10T17:06:37.475Z,12.40
2023-05-10T17:09:05.624Z,12.30
2023-05-10T17:11:32.771Z,12.20
2023-05-10T17:14:01.416Z,12.10
2023-05-10T17:16:28.951Z,12.10
2023-05-10T17:18:55.761Z,12.00
2023-05-10T17:21:22.541Z,11.90
2023-05-10T17:23:49.225Z,11.90
2023-05-10T17:26:16.105Z,11.90
2023-05-10T17:28:42.793Z,11.80
2023-05-10T17:31:09.693Z,11.80
2023-05-10T17:33:36.411Z,11.70
2023-05-10T17:36:03.825Z,11.70
2023-05-10T17:38:30.549Z,11.60
2023-05-10T17:40:57.253Z,11.60
2023-05-10T17:43:24.053Z,11.50
2023-05-10T17:45:50.860Z,11.40
2023-05-10T17:48:17.799Z,11.40
2023-05-10T17:50:44.621Z,11.30
2023-05-10T17:53:11.419Z,11.30
2023-05-10T17:55:42.029Z,11.30
2023-05-10T17:58:10.929Z,11.20
2023-05-10T18:00:38.359Z,11.20
2023-05-10T18:03:05.632Z,11.10
2023-05-10T18:05:36.289Z,11.10
2023-05-10T18:08:04.046Z,11.10
2023-05-10T18:10:30.954Z,11.10
2023-05-10T18:13:02.328Z,11.00
2023-05-10T18:15:29.091Z,11.00
2023-05-10T18:17:56.753Z,11.00
2023-05-10T18:20:24.052Z,11.00
2023-05-10T18:22:50.844Z,11.00
2023-05-10T18:25:17.946Z,11.00
2023-05-10T18:27:44.830Z,11.10
2023-05-10T18:30:12.574Z,11.10
2023-05-10T18:32:39.662Z,11.00
2023-05-10T18:35:08.057Z,11.00
2023-05-10T18:37:35.450Z,11.00
2023-05-10T18:40:02.461Z,11.00
2023-05-10T18:42:29.204Z,11.00
2023-05-10T18:44:55.895Z,10.90
2023-05-10T18:47:22.743Z,10.90
2023-05-10T18:49:49.568Z,10.90
2023-05-10T18:52:16.336Z,10.80
2023-05-10T18:54:43.081Z,10.80
2023-05-10T18:57:10.187Z,10.80
2023-05-10T18:59:36.935Z,10.80
2023-05-10T19:02:03.900Z,10.80
2023-05-10T19:04:31.057Z,10.80
2023-05-10T19:06:57.812Z,10.80
2023-05-10T19:09:26.165Z,10.80
2023-05-10T19:11:52.973Z,10.70
2023-05-10T19:14:20.068Z,10.70
2023-05-10T19:16:47.410Z,10.70
2023-05-10T19:19:14.371Z,10.70
2023-05-10T19:21:41.068Z,10.60
2023-05-10T19:24:08.023Z,10.70
2023-05-10T19:26:36.286Z,10.60
2023-05-10T19:29:04.088Z,10.70
2023-05-10T19:31:33.393Z,10.70
2023-05-10T19:34:00.916Z,10.70
2023-05-10T19:36:27.926Z,10.70
2023-05-10T19:38:54.661Z,10.60
2023-05-10T19:41:21.974Z,10.70
2023-05-10T19:43:48.739Z,10.70
2023-05-10T19:46:17.836Z,10.70
2023-05-10T19:48:46.418Z,10.70
2023-05-10T19:51:13.159Z,10.70
2023-05-10T19:53:44.135Z,10.60
2023-05-10T19:56:11.503Z,10.70
2023-05-10T19:58:38.684Z,10.70
2023-05-10T20:01:08.338Z,10.70
2023-05-10T20:03:35.791Z,10.70
2023-05-10T20:06:04.012Z,10.70
2023-05-10T20:08:31.080Z,10.60
2023-05-10T20:10:59.077Z,10.70
2023-05-10T20:13:26.169Z,10.70
2023-05-10T20:15:59.573Z,10.70
2023-05-10T20:18:26.683Z,10.60
2023-05-10T20:20:55.211Z,10.60
2023-05-10T20:23:22.549Z,10.60
2023-05-10T20:25:49.524Z,10.60
2023-05-10T20:28:20.831Z,10.60
2023-05-10T20:30:47.533Z,10.60
2023-05-10T20:33:15.755Z,10.60
2023-05-10T20:35:42.722Z,10.50
2023-05-10T20:38:09.478Z,10.50
2023-05-10T20:40:36.603Z,10.50
2023-05-10T20:43:05.234Z,10.50
2023-05-10T20:45:32.590Z,10.50
2023-05-10T20:47:59.404Z,10.50
2023-05-10T20:50:26.176Z,10.50
2023-05-10T20:52:52.887Z,10.50
2023-05-10T20:55:20.609Z,10.50
2023-05-10T20:57:47.432Z,10.40
2023-05-10T21:00:14.997Z,10.40
2023-05-10T21:02:45.512Z,10.50
2023-05-10T21:05:12.585Z,10.40
2023-05-10T21:07:39.814Z,10.40
2023-05-10T21:10:08.186Z,10.40
2023-05-10T21:12:34.980Z,10.40
2023-05-10T21:15:01.713Z,10.40
2023-05-10T21:17:28.551Z,10.30
2023-05-10T21:19:55.569Z,10.30
2023-05-10T21:22:22.305Z,10.30
2023-05-10T21:24:49.038Z,10.30
2023-05-10T21:27:15.746Z,10.30
2023-05-10T21:29:42.558Z,10.30
2023-05-10T21:32:09.690Z,10.20
2023-05-10T21:34:36.668Z,10.20
2023-05-10T21:37:03.443Z,10.20
2023-05-10T21:39:30.150Z,10.20
2023-05-10T21:41:56.955Z,10.20
2023-05-10T21:44:23.659Z,10.10
2023-05-10T21:46:50.633Z,10.10
2023-05-10T21:49:17.826Z,10.10
2023-05-10T21:51:44.590Z,10.10
2023-05-10T21:54:11.348Z,10.10
2023-05-10T21:56:38.070Z,10.10
2023-05-10T21:59:05.104Z,10.10
2023-05-10T22:01:31.859Z,10.10
2023-05-10T22:03:58.585Z,10.10
2023-05-10T22:06:25.425Z,10.10
2023-05-10T22:08:52.434Z,10.10
2023-05-10T22:11:19.208Z,10.10
2023-05-10T22:13:45.909Z,10.10
2023-05-10T22:16:12.745Z,10.10
2023-05-10T22:18:39.558Z,10.10
2023-05-10T22:21:06.440Z,10.00
2023-05-10T22:23:33.166Z,10.00
2023-05-10T22:26:01.955Z,10.00
2023-05-10T22:28:29.361Z,9.90
2023-05-10T22:30:56.166Z,9.90
2023-05-10T22:33:22.928Z,9.90
2023-05-10T22:35:49.629Z,9.80
2023-05-10T22:38:16.368Z,9.80
2023-05-10T22:40:43.106Z,9.80
2023-05-10T22:43:09.785Z,9.80
2023-05-10T22:45:36.488Z,9.80
2023-05-10T22:48:05.216Z,9.70
2023-05-10T22:50:32.096Z,9.70
2023-05-10T22:52:58.895Z,9.70
2023-05-10T22:55:25.804Z,9.70
2023-05-10T22:57:52.607Z,9.70
2023-05-10T23:00:20.055Z,9.60
2023-05-10T23:02:46.948Z,9.60
2023-05-10T23:05:14.007Z,9.60
2023-05-10T23:07:40.839Z,9.60
2023-05-10T23:10:08.217Z,9.60
2023-05-10T23:12:34.996Z,9.50
2023-05-10T23:15:01.803Z,9.50
2023-05-10T23:17:28.581Z,9.50
2023-05-10T23:19:55.436Z,9.50
2023-05-10T23:22:22.170Z,9.50
2023-05-10T23:24:49.163Z,9.50
2023-05-10T23:27:15.861Z,9.50
2023-05-10T23:29:42.572Z,9.50
2023-05-10T23:32:09.396Z,9.50
2023-05-10T23:34:36.359Z,9.50
2023-05-10T23:37:03.150Z,9.50
2023-05-10T23:39:29.924Z,9.50
2023-05-10T23:41:56.660Z,9.50
2023-05-10T23:44:23.507Z,9.50
2023-05-10T23:46:50.581Z,9.40
2023-05-10T23:49:17.826Z,9.50
2023-05-10T23:51:44.545Z,9.40
2023-05-10T23:54:11.301Z,9.40
2023-05-10T23:56:38.172Z,9.40
2023-05-10T23:59:05.927Z,9.40
